Andover, Kansas
Current Conditions -  °F | °C
As of 9:54 PM on Tuesday 21 Oct 2014 (Local Time) from KAAO Reporting Station
Clear Clear  
Wind Chill: 18°   Ceiling: Unl
Heat Index: 18°   Visibility: 10mi
Dew Point: 14°   Wind: 8mph
Humidity: 78%   Direction: 150°SSE
Pressure: 30.05"   Gusts: NA
Location:  37.71°N, 97.14°W
Report Text: KAAO 220254Z AUTO 15007KT 10SM CLR 18/14 A3005 RMK AO2 SLP171 T01830144 51014
Loading
Personal Weather Stations






























Interactive Weather Map
Tropical Storm Tracking
New forecast layout! Learn more

10-Day Weather Forecast

Advertisements
Track Severe Weather on mobile